Terminal Aerodrome Forecast
Issued by NWS

Home | Current Version | Previous Version | Graphics & Text | Print | Product List | Glossary On
Versions: 1 2 3 4 5 6 7 8 9 10 11 12 13 14 15 16 17 18 19 20 21
000
FTUS43 KABR 221125 AAA
TAFPIR
TAF AMD
KPIR 221125Z 2211/2312 25009KT P6SM VCSH BKN150
      TEMPO 2212/2214 -RA OVC070
     FM221700 33015G23KT P6SM BKN070
     FM230200 34009KT P6SM OVC050=

USA.gov is the U.S. government's official web portal to all federal, state and local government web resources and services.